sensor_id;sensor_type;location;lat;lon;timestamp;P1;durP1;ratioP1;P2;durP2;ratioP2
32946;SDS011;54465;51.230;22.504;2022-12-07T00:02:57;24.70;;;11.93;;
32946;SDS011;54465;51.230;22.504;2022-12-07T00:05:59;25.80;;;13.43;;
32946;SDS011;54465;51.230;22.504;2022-12-07T00:09:04;25.63;;;12.20;;
32946;SDS011;54465;51.230;22.504;2022-12-07T00:12:08;21.45;;;12.13;;
32946;SDS011;54465;51.230;22.504;2022-12-07T00:15:10;25.50;;;12.38;;
32946;SDS011;54465;51.230;22.504;2022-12-07T00:18:16;26.95;;;13.35;;
32946;SDS011;54465;51.230;22.504;2022-12-07T00:21:19;25.17;;;12.50;;
32946;SDS011;54465;51.230;22.504;2022-12-07T00:24:24;21.67;;;12.65;;
32946;SDS011;54465;51.230;22.504;2022-12-07T00:27:26;21.88;;;11.88;;
32946;SDS011;54465;51.230;22.504;2022-12-07T00:30:29;21.65;;;11.95;;
32946;SDS011;54465;51.230;22.504;2022-12-07T00:33:32;20.92;;;12.07;;
32946;SDS011;54465;51.230;22.504;2022-12-07T00:36:35;18.23;;;11.18;;
32946;SDS011;54465;51.230;22.504;2022-12-07T00:39:41;20.00;;;11.35;;
32946;SDS011;54465;51.230;22.504;2022-12-07T00:42:44;19.27;;;11.65;;
32946;SDS011;54465;51.230;22.504;2022-12-07T00:45:46;22.85;;;12.85;;
32946;SDS011;54465;51.230;22.504;2022-12-07T00:48:49;22.42;;;12.05;;
32946;SDS011;54465;51.230;22.504;2022-12-07T00:51:55;19.73;;;12.30;;
32946;SDS011;54465;51.230;22.504;2022-12-07T00:55:00;22.08;;;12.18;;
32946;SDS011;54465;51.230;22.504;2022-12-07T00:58:03;22.20;;;11.68;;
32946;SDS011;54465;51.230;22.504;2022-12-07T01:01:06;21.15;;;11.90;;
32946;SDS011;54465;51.230;22.504;2022-12-07T01:04:09;19.05;;;10.73;;
32946;SDS011;54465;51.230;22.504;2022-12-07T01:07:12;18.20;;;11.23;;
32946;SDS011;54465;51.230;22.504;2022-12-07T01:10:18;20.73;;;11.00;;
32946;SDS011;54465;51.230;22.504;2022-12-07T01:13:21;20.52;;;11.60;;
32946;SDS011;54465;51.230;22.504;2022-12-07T01:16:24;16.27;;;10.25;;
32946;SDS011;54465;51.230;22.504;2022-12-07T01:19:28;17.73;;;10.25;;
32946;SDS011;54465;51.230;22.504;2022-12-07T01:22:31;19.63;;;10.68;;
32946;SDS011;54465;51.230;22.504;2022-12-07T01:25:39;16.13;;;10.35;;
32946;SDS011;54465;51.230;22.504;2022-12-07T01:28:42;19.92;;;11.23;;
32946;SDS011;54465;51.230;22.504;2022-12-07T01:31:44;17.27;;;10.57;;
32946;SDS011;54465;51.230;22.504;2022-12-07T01:34:51;18.50;;;10.88;;
32946;SDS011;54465;51.230;22.504;2022-12-07T01:37:53;16.33;;;10.45;;
32946;SDS011;54465;51.230;22.504;2022-12-07T01:40:57;14.35;;;10.77;;
32946;SDS011;54465;51.230;22.504;2022-12-07T01:44:12;16.35;;;9.90;;
32946;SDS011;54465;51.230;22.504;2022-12-07T01:47:17;15.02;;;9.65;;
32946;SDS011;54465;51.230;22.504;2022-12-07T01:50:20;15.77;;;8.75;;
32946;SDS011;54465;51.230;22.504;2022-12-07T01:53:26;15.00;;;9.32;;
32946;SDS011;54465;51.230;22.504;2022-12-07T01:56:32;15.82;;;9.23;;
32946;SDS011;54465;51.230;22.504;2022-12-07T01:59:34;14.43;;;9.55;;
32946;SDS011;54465;51.230;22.504;2022-12-07T02:02:38;13.02;;;9.05;;
32946;SDS011;54465;51.230;22.504;2022-12-07T02:05:45;12.80;;;8.13;;
32946;SDS011;54465;51.230;22.504;2022-12-07T02:08:50;12.63;;;8.48;;
32946;SDS011;54465;51.230;22.504;2022-12-07T02:11:55;10.90;;;8.20;;
32946;SDS011;54465;51.230;22.504;2022-12-07T02:14:57;13.23;;;7.57;;
32946;SDS011;54465;51.230;22.504;2022-12-07T02:18:01;11.13;;;7.40;;
32946;SDS011;54465;51.230;22.504;2022-12-07T02:21:12;13.48;;;8.23;;
32946;SDS011;54465;51.230;22.504;2022-12-07T02:24:41;11.25;;;7.57;;
32946;SDS011;54465;51.230;22.504;2022-12-07T02:27:58;10.75;;;6.65;;
32946;SDS011;54465;51.230;22.504;2022-12-07T02:31:09;10.10;;;6.38;;
32946;SDS011;54465;51.230;22.504;2022-12-07T02:34:18;7.43;;;5.35;;
32946;SDS011;54465;51.230;22.504;2022-12-07T02:40:33;5.57;;;4.10;;
32946;SDS011;54465;51.230;22.504;2022-12-07T02:43:40;5.88;;;3.58;;
32946;SDS011;54465;51.230;22.504;2022-12-07T02:46:50;7.10;;;3.53;;
32946;SDS011;54465;51.230;22.504;2022-12-07T02:49:55;4.78;;;3.05;;
32946;SDS011;54465;51.230;22.504;2022-12-07T02:52:59;5.35;;;3.30;;
32946;SDS011;54465;51.230;22.504;2022-12-07T02:56:02;3.97;;;2.78;;
32946;SDS011;54465;51.230;22.504;2022-12-07T02:59:13;4.15;;;3.17;;
32946;SDS011;54465;51.230;22.504;2022-12-07T03:02:25;4.55;;;3.30;;
32946;SDS011;54465;51.230;22.504;2022-12-07T03:05:43;7.20;;;3.05;;
32946;SDS011;54465;51.230;22.504;2022-12-07T03:09:08;3.97;;;3.05;;
32946;SDS011;54465;51.230;22.504;2022-12-07T03:12:16;7.25;;;3.10;;
32946;SDS011;54465;51.230;22.504;2022-12-07T03:15:23;4.35;;;3.05;;
32946;SDS011;54465;51.230;22.504;2022-12-07T03:18:32;5.05;;;3.08;;
32946;SDS011;54465;51.230;22.504;2022-12-07T03:21:40;4.32;;;3.13;;
32946;SDS011;54465;51.230;22.504;2022-12-07T03:24:47;4.22;;;2.90;;
32946;SDS011;54465;51.230;22.504;2022-12-07T03:27:54;5.25;;;2.97;;
32946;SDS011;54465;51.230;22.504;2022-12-07T03:31:05;3.55;;;2.55;;
32946;SDS011;54465;51.230;22.504;2022-12-07T03:34:16;3.35;;;2.42;;
32946;SDS011;54465;51.230;22.504;2022-12-07T03:37:25;3.78;;;2.58;;
32946;SDS011;54465;51.230;22.504;2022-12-07T03:40:34;4.93;;;2.65;;
32946;SDS011;54465;51.230;22.504;2022-12-07T03:43:40;3.80;;;2.42;;
32946;SDS011;54465;51.230;22.504;2022-12-07T03:46:44;5.53;;;3.28;;
32946;SDS011;54465;51.230;22.504;2022-12-07T03:49:56;5.18;;;3.40;;
32946;SDS011;54465;51.230;22.504;2022-12-07T03:53:05;4.03;;;3.05;;
32946;SDS011;54465;51.230;22.504;2022-12-07T03:56:12;6.00;;;3.30;;
32946;SDS011;54465;51.230;22.504;2022-12-07T03:59:16;5.28;;;2.80;;
32946;SDS011;54465;51.230;22.504;2022-12-07T04:02:19;4.45;;;2.72;;
32946;SDS011;54465;51.230;22.504;2022-12-07T04:05:23;4.63;;;3.03;;
32946;SDS011;54465;51.230;22.504;2022-12-07T04:08:26;6.68;;;2.85;;
32946;SDS011;54465;51.230;22.504;2022-12-07T04:11:28;4.63;;;2.60;;
32946;SDS011;54465;51.230;22.504;2022-12-07T04:14:34;4.63;;;2.63;;
32946;SDS011;54465;51.230;22.504;2022-12-07T04:17:36;3.97;;;2.65;;
32946;SDS011;54465;51.230;22.504;2022-12-07T04:20:42;4.53;;;2.47;;
32946;SDS011;54465;51.230;22.504;2022-12-07T04:23:44;3.50;;;2.65;;
32946;SDS011;54465;51.230;22.504;2022-12-07T04:26:48;3.75;;;2.45;;
32946;SDS011;54465;51.230;22.504;2022-12-07T04:29:50;3.92;;;2.50;;
32946;SDS011;54465;51.230;22.504;2022-12-07T04:32:53;2.72;;;2.10;;
32946;SDS011;54465;51.230;22.504;2022-12-07T04:35:56;4.50;;;2.60;;
32946;SDS011;54465;51.230;22.504;2022-12-07T04:38:58;2.92;;;2.47;;
32946;SDS011;54465;51.230;22.504;2022-12-07T04:42:01;5.50;;;2.65;;
32946;SDS011;54465;51.230;22.504;2022-12-07T04:45:04;4.97;;;2.90;;
32946;SDS011;54465;51.230;22.504;2022-12-07T04:48:08;3.67;;;2.80;;
32946;SDS011;54465;51.230;22.504;2022-12-07T04:51:11;4.80;;;2.95;;
32946;SDS011;54465;51.230;22.504;2022-12-07T04:54:14;5.57;;;3.22;;
32946;SDS011;54465;51.230;22.504;2022-12-07T04:57:18;5.47;;;3.20;;
32946;SDS011;54465;51.230;22.504;2022-12-07T05:00:21;3.67;;;2.97;;
32946;SDS011;54465;51.230;22.504;2022-12-07T05:03:23;4.15;;;3.10;;
32946;SDS011;54465;51.230;22.504;2022-12-07T05:06:27;4.38;;;2.67;;
32946;SDS011;54465;51.230;22.504;2022-12-07T05:09:29;5.30;;;3.08;;
32946;SDS011;54465;51.230;22.504;2022-12-07T05:12:32;4.72;;;2.40;;
32946;SDS011;54465;51.230;22.504;2022-12-07T05:15:34;3.90;;;2.50;;
32946;SDS011;54465;51.230;22.504;2022-12-07T05:18:36;4.53;;;2.72;;
32946;SDS011;54465;51.230;22.504;2022-12-07T05:21:41;3.33;;;2.72;;
32946;SDS011;54465;51.230;22.504;2022-12-07T05:24:43;3.92;;;2.45;;
32946;SDS011;54465;51.230;22.504;2022-12-07T05:27:46;3.10;;;2.60;;
32946;SDS011;54465;51.230;22.504;2022-12-07T05:30:49;5.28;;;2.85;;
32946;SDS011;54465;51.230;22.504;2022-12-07T05:33:51;2.70;;;2.15;;
32946;SDS011;54465;51.230;22.504;2022-12-07T05:36:56;3.17;;;2.30;;
32946;SDS011;54465;51.230;22.504;2022-12-07T05:39:58;3.05;;;2.53;;
32946;SDS011;54465;51.230;22.504;2022-12-07T05:43:02;3.58;;;2.30;;
32946;SDS011;54465;51.230;22.504;2022-12-07T05:46:04;3.72;;;2.45;;
32946;SDS011;54465;51.230;22.504;2022-12-07T05:49:08;3.90;;;2.40;;
32946;SDS011;54465;51.230;22.504;2022-12-07T05:52:14;3.63;;;2.78;;
32946;SDS011;54465;51.230;22.504;2022-12-07T05:55:16;3.38;;;2.50;;
32946;SDS011;54465;51.230;22.504;2022-12-07T05:58:19;3.70;;;2.30;;
32946;SDS011;54465;51.230;22.504;2022-12-07T06:01:41;4.65;;;2.45;;
32946;SDS011;54465;51.230;22.504;2022-12-07T06:04:44;4.22;;;2.70;;
32946;SDS011;54465;51.230;22.504;2022-12-07T06:07:51;4.35;;;2.80;;
32946;SDS011;54465;51.230;22.504;2022-12-07T06:10:54;6.10;;;2.50;;
32946;SDS011;54465;51.230;22.504;2022-12-07T06:14:10;4.57;;;2.83;;
32946;SDS011;54465;51.230;22.504;2022-12-07T06:17:13;4.45;;;2.65;;
32946;SDS011;54465;51.230;22.504;2022-12-07T06:20:16;5.25;;;3.08;;
32946;SDS011;54465;51.230;22.504;2022-12-07T06:23:19;4.45;;;3.08;;
32946;SDS011;54465;51.230;22.504;2022-12-07T06:26:23;4.00;;;2.80;;
32946;SDS011;54465;51.230;22.504;2022-12-07T06:29:26;3.53;;;2.53;;
32946;SDS011;54465;51.230;22.504;2022-12-07T06:32:28;3.60;;;2.25;;
32946;SDS011;54465;51.230;22.504;2022-12-07T06:35:34;2.53;;;2.10;;
32946;SDS011;54465;51.230;22.504;2022-12-07T06:38:38;3.92;;;2.05;;
32946;SDS011;54465;51.230;22.504;2022-12-07T06:41:41;3.45;;;2.13;;
32946;SDS011;54465;51.230;22.504;2022-12-07T06:44:44;4.25;;;1.92;;
32946;SDS011;54465;51.230;22.504;2022-12-07T06:47:47;3.58;;;2.10;;
32946;SDS011;54465;51.230;22.504;2022-12-07T06:50:50;3.20;;;2.22;;
32946;SDS011;54465;51.230;22.504;2022-12-07T06:53:54;3.30;;;2.35;;
32946;SDS011;54465;51.230;22.504;2022-12-07T06:56:57;2.30;;;1.90;;
32946;SDS011;54465;51.230;22.504;2022-12-07T07:00:00;3.25;;;2.10;;
32946;SDS011;54465;51.230;22.504;2022-12-07T07:03:04;4.70;;;2.15;;
32946;SDS011;54465;51.230;22.504;2022-12-07T07:06:08;3.00;;;2.10;;
32946;SDS011;54465;51.230;22.504;2022-12-07T07:09:13;3.70;;;2.13;;
32946;SDS011;54465;51.230;22.504;2022-12-07T07:12:15;3.55;;;2.10;;
32946;SDS011;54465;51.230;22.504;2022-12-07T07:15:21;4.85;;;3.00;;
32946;SDS011;54465;51.230;22.504;2022-12-07T07:18:23;5.03;;;2.92;;
32946;SDS011;54465;51.230;22.504;2022-12-07T07:21:27;3.88;;;2.78;;
32946;SDS011;54465;51.230;22.504;2022-12-07T07:24:31;5.78;;;3.75;;
32946;SDS011;54465;51.230;22.504;2022-12-07T07:27:33;4.35;;;3.05;;
32946;SDS011;54465;51.230;22.504;2022-12-07T07:30:36;4.05;;;3.08;;
32946;SDS011;54465;51.230;22.504;2022-12-07T07:33:38;5.20;;;3.30;;
32946;SDS011;54465;51.230;22.504;2022-12-07T07:36:45;6.25;;;4.10;;
32946;SDS011;54465;51.230;22.504;2022-12-07T07:39:49;13.07;;;5.90;;
32946;SDS011;54465;51.230;22.504;2022-12-07T07:42:52;10.80;;;5.60;;
32946;SDS011;54465;51.230;22.504;2022-12-07T07:45:56;12.15;;;6.32;;
32946;SDS011;54465;51.230;22.504;2022-12-07T07:48:59;12.95;;;6.18;;
32946;SDS011;54465;51.230;22.504;2022-12-07T07:52:04;9.52;;;5.18;;
32946;SDS011;54465;51.230;22.504;2022-12-07T07:55:16;7.93;;;4.93;;
32946;SDS011;54465;51.230;22.504;2022-12-07T07:58:20;7.90;;;4.90;;
32946;SDS011;54465;51.230;22.504;2022-12-07T08:01:26;8.15;;;4.88;;
32946;SDS011;54465;51.230;22.504;2022-12-07T08:04:28;5.55;;;4.05;;
32946;SDS011;54465;51.230;22.504;2022-12-07T08:07:30;5.90;;;3.72;;
32946;SDS011;54465;51.230;22.504;2022-12-07T08:10:35;7.15;;;3.88;;
32946;SDS011;54465;51.230;22.504;2022-12-07T08:13:38;5.30;;;4.00;;
32946;SDS011;54465;51.230;22.504;2022-12-07T08:16:41;7.78;;;4.55;;
32946;SDS011;54465;51.230;22.504;2022-12-07T08:19:44;8.50;;;4.25;;
32946;SDS011;54465;51.230;22.504;2022-12-07T08:22:54;9.27;;;5.13;;
32946;SDS011;54465;51.230;22.504;2022-12-07T08:26:01;6.68;;;4.45;;
32946;SDS011;54465;51.230;22.504;2022-12-07T08:29:03;6.97;;;3.97;;
32946;SDS011;54465;51.230;22.504;2022-12-07T08:32:06;10.45;;;5.15;;
32946;SDS011;54465;51.230;22.504;2022-12-07T08:35:08;7.28;;;4.28;;
32946;SDS011;54465;51.230;22.504;2022-12-07T08:38:11;7.85;;;4.45;;
32946;SDS011;54465;51.230;22.504;2022-12-07T08:41:34;10.02;;;5.40;;
32946;SDS011;54465;51.230;22.504;2022-12-07T08:44:37;8.98;;;5.10;;
32946;SDS011;54465;51.230;22.504;2022-12-07T08:47:42;8.65;;;4.68;;
32946;SDS011;54465;51.230;22.504;2022-12-07T08:50:48;7.75;;;4.90;;
32946;SDS011;54465;51.230;22.504;2022-12-07T08:53:50;9.98;;;4.88;;
32946;SDS011;54465;51.230;22.504;2022-12-07T08:56:56;10.55;;;6.00;;
32946;SDS011;54465;51.230;22.504;2022-12-07T08:59:59;8.70;;;5.32;;
32946;SDS011;54465;51.230;22.504;2022-12-07T09:03:03;11.00;;;6.72;;
32946;SDS011;54465;51.230;22.504;2022-12-07T09:06:05;11.57;;;5.32;;
32946;SDS011;54465;51.230;22.504;2022-12-07T09:09:09;12.52;;;6.47;;
32946;SDS011;54465;51.230;22.504;2022-12-07T09:12:14;12.63;;;5.40;;
32946;SDS011;54465;51.230;22.504;2022-12-07T09:15:16;11.30;;;5.53;;
32946;SDS011;54465;51.230;22.504;2022-12-07T09:18:19;13.23;;;6.78;;
32946;SDS011;54465;51.230;22.504;2022-12-07T09:21:21;11.25;;;5.65;;
32946;SDS011;54465;51.230;22.504;2022-12-07T09:24:24;9.88;;;5.95;;
32946;SDS011;54465;51.230;22.504;2022-12-07T09:27:28;11.27;;;5.25;;
32946;SDS011;54465;51.230;22.504;2022-12-07T09:30:31;12.00;;;4.72;;
32946;SDS011;54465;51.230;22.504;2022-12-07T09:33:33;11.02;;;5.20;;
32946;SDS011;54465;51.230;22.504;2022-12-07T09:36:35;14.02;;;6.70;;
32946;SDS011;54465;51.230;22.504;2022-12-07T09:39:37;11.98;;;6.00;;
32946;SDS011;54465;51.230;22.504;2022-12-07T09:42:41;7.60;;;5.07;;
32946;SDS011;54465;51.230;22.504;2022-12-07T09:45:46;8.57;;;4.60;;
32946;SDS011;54465;51.230;22.504;2022-12-07T09:48:51;9.27;;;5.40;;
32946;SDS011;54465;51.230;22.504;2022-12-07T09:52:02;8.48;;;4.70;;
32946;SDS011;54465;51.230;22.504;2022-12-07T09:55:19;9.70;;;5.47;;
32946;SDS011;54465;51.230;22.504;2022-12-07T09:58:27;12.00;;;6.00;;
32946;SDS011;54465;51.230;22.504;2022-12-07T10:01:32;9.75;;;5.57;;
32946;SDS011;54465;51.230;22.504;2022-12-07T10:04:35;11.00;;;5.35;;
32946;SDS011;54465;51.230;22.504;2022-12-07T10:07:40;8.63;;;5.05;;
32946;SDS011;54465;51.230;22.504;2022-12-07T10:10:45;8.73;;;5.65;;
32946;SDS011;54465;51.230;22.504;2022-12-07T10:13:53;8.20;;;5.40;;
32946;SDS011;54465;51.230;22.504;2022-12-07T10:16:55;7.97;;;5.00;;
32946;SDS011;54465;51.230;22.504;2022-12-07T10:27:18;6.97;;;4.32;;
32946;SDS011;54465;51.230;22.504;2022-12-07T10:30:24;9.30;;;4.90;;
32946;SDS011;54465;51.230;22.504;2022-12-07T10:33:31;7.72;;;4.35;;
32946;SDS011;54465;51.230;22.504;2022-12-07T10:36:36;7.97;;;4.30;;
32946;SDS011;54465;51.230;22.504;2022-12-07T10:39:44;8.02;;;4.75;;
32946;SDS011;54465;51.230;22.504;2022-12-07T10:43:17;6.95;;;4.60;;
32946;SDS011;54465;51.230;22.504;2022-12-07T10:53:46;6.53;;;3.93;;
32946;SDS011;54465;51.230;22.504;2022-12-07T10:56:59;6.05;;;3.75;;
32946;SDS011;54465;51.230;22.504;2022-12-07T11:00:22;5.72;;;4.35;;
32946;SDS011;54465;51.230;22.504;2022-12-07T11:03:32;8.80;;;3.80;;
32946;SDS011;54465;51.230;22.504;2022-12-07T11:06:49;7.60;;;4.07;;
32946;SDS011;54465;51.230;22.504;2022-12-07T11:09:59;13.10;;;5.13;;
32946;SDS011;54465;51.230;22.504;2022-12-07T11:13:14;24.35;;;11.40;;
32946;SDS011;54465;51.230;22.504;2022-12-07T11:16:30;12.23;;;6.85;;
32946;SDS011;54465;51.230;22.504;2022-12-07T11:19:49;8.13;;;5.38;;
32946;SDS011;54465;51.230;22.504;2022-12-07T11:23:09;8.27;;;6.40;;
32946;SDS011;54465;51.230;22.504;2022-12-07T11:26:20;10.27;;;6.22;;
32946;SDS011;54465;51.230;22.504;2022-12-07T11:33:18;8.38;;;4.53;;
32946;SDS011;54465;51.230;22.504;2022-12-07T11:36:33;8.52;;;6.10;;
32946;SDS011;54465;51.230;22.504;2022-12-07T11:39:44;9.85;;;6.50;;
32946;SDS011;54465;51.230;22.504;2022-12-07T11:42:54;11.23;;;6.38;;
32946;SDS011;54465;51.230;22.504;2022-12-07T11:46:07;11.40;;;6.10;;
32946;SDS011;54465;51.230;22.504;2022-12-07T11:49:17;15.00;;;7.15;;
32946;SDS011;54465;51.230;22.504;2022-12-07T11:52:30;11.23;;;5.38;;
32946;SDS011;54465;51.230;22.504;2022-12-07T11:55:49;7.07;;;4.50;;
32946;SDS011;54465;51.230;22.504;2022-12-07T11:58:54;8.15;;;4.78;;
32946;SDS011;54465;51.230;22.504;2022-12-07T12:02:02;8.38;;;5.07;;
32946;SDS011;54465;51.230;22.504;2022-12-07T12:05:16;6.70;;;4.43;;
32946;SDS011;54465;51.230;22.504;2022-12-07T12:08:23;7.63;;;4.93;;
32946;SDS011;54465;51.230;22.504;2022-12-07T12:11:39;7.63;;;5.38;;
32946;SDS011;54465;51.230;22.504;2022-12-07T12:14:59;7.60;;;4.85;;
32946;SDS011;54465;51.230;22.504;2022-12-07T12:18:14;5.70;;;4.15;;
32946;SDS011;54465;51.230;22.504;2022-12-07T12:21:40;7.38;;;4.80;;
32946;SDS011;54465;51.230;22.504;2022-12-07T12:24:48;9.63;;;5.25;;
32946;SDS011;54465;51.230;22.504;2022-12-07T12:27:58;8.45;;;5.85;;
32946;SDS011;54465;51.230;22.504;2022-12-07T12:31:07;9.30;;;5.65;;
32946;SDS011;54465;51.230;22.504;2022-12-07T12:34:29;8.70;;;5.35;;
32946;SDS011;54465;51.230;22.504;2022-12-07T12:37:40;8.90;;;5.93;;
32946;SDS011;54465;51.230;22.504;2022-12-07T12:40:45;9.38;;;5.75;;
32946;SDS011;54465;51.230;22.504;2022-12-07T12:43:52;7.55;;;5.70;;
32946;SDS011;54465;51.230;22.504;2022-12-07T12:46:55;8.68;;;5.57;;
32946;SDS011;54465;51.230;22.504;2022-12-07T12:50:12;8.93;;;5.00;;
32946;SDS011;54465;51.230;22.504;2022-12-07T12:53:21;7.05;;;5.30;;
32946;SDS011;54465;51.230;22.504;2022-12-07T13:04:52;10.32;;;5.30;;
32946;SDS011;54465;51.230;22.504;2022-12-07T13:07:59;7.80;;;5.03;;
32946;SDS011;54465;51.230;22.504;2022-12-07T13:11:16;7.63;;;5.10;;
32946;SDS011;54465;51.230;22.504;2022-12-07T13:18:16;8.75;;;5.30;;
32946;SDS011;54465;51.230;22.504;2022-12-07T13:21:42;8.95;;;4.45;;
32946;SDS011;54465;51.230;22.504;2022-12-07T13:24:46;8.35;;;4.88;;
32946;SDS011;54465;51.230;22.504;2022-12-07T13:27:50;9.40;;;5.28;;
32946;SDS011;54465;51.230;22.504;2022-12-07T13:31:03;10.43;;;5.30;;
32946;SDS011;54465;51.230;22.504;2022-12-07T13:34:33;8.10;;;4.47;;
32946;SDS011;54465;51.230;22.504;2022-12-07T13:37:39;6.03;;;4.50;;
32946;SDS011;54465;51.230;22.504;2022-12-07T13:40:41;5.05;;;3.67;;
32946;SDS011;54465;51.230;22.504;2022-12-07T13:43:48;8.30;;;4.15;;
32946;SDS011;54465;51.230;22.504;2022-12-07T13:46:53;8.77;;;5.80;;
32946;SDS011;54465;51.230;22.504;2022-12-07T13:53:25;7.30;;;4.72;;
32946;SDS011;54465;51.230;22.504;2022-12-07T13:56:33;7.33;;;4.50;;
32946;SDS011;54465;51.230;22.504;2022-12-07T13:59:39;9.40;;;5.32;;
32946;SDS011;54465;51.230;22.504;2022-12-07T14:02:53;8.52;;;4.75;;
32946;SDS011;54465;51.230;22.504;2022-12-07T14:06:14;8.38;;;4.65;;
32946;SDS011;54465;51.230;22.504;2022-12-07T14:09:27;11.82;;;5.97;;
32946;SDS011;54465;51.230;22.504;2022-12-07T14:12:31;9.70;;;6.38;;
32946;SDS011;54465;51.230;22.504;2022-12-07T14:15:40;8.13;;;5.38;;
32946;SDS011;54465;51.230;22.504;2022-12-07T14:18:42;9.30;;;5.38;;
32946;SDS011;54465;51.230;22.504;2022-12-07T14:21:47;7.78;;;4.53;;
32946;SDS011;54465;51.230;22.504;2022-12-07T14:24:49;7.53;;;4.53;;
32946;SDS011;54465;51.230;22.504;2022-12-07T14:27:54;9.02;;;5.45;;
32946;SDS011;54465;51.230;22.504;2022-12-07T14:30:59;10.43;;;6.57;;
32946;SDS011;54465;51.230;22.504;2022-12-07T14:34:02;13.63;;;8.10;;
32946;SDS011;54465;51.230;22.504;2022-12-07T14:37:13;11.52;;;6.47;;
32946;SDS011;54465;51.230;22.504;2022-12-07T14:40:16;10.30;;;5.93;;
32946;SDS011;54465;51.230;22.504;2022-12-07T14:43:21;10.63;;;6.28;;
32946;SDS011;54465;51.230;22.504;2022-12-07T14:46:24;11.57;;;6.95;;
32946;SDS011;54465;51.230;22.504;2022-12-07T14:49:27;13.13;;;7.78;;
32946;SDS011;54465;51.230;22.504;2022-12-07T14:52:32;12.35;;;7.07;;
32946;SDS011;54465;51.230;22.504;2022-12-07T14:55:35;9.50;;;6.10;;
32946;SDS011;54465;51.230;22.504;2022-12-07T14:58:38;10.88;;;6.35;;
32946;SDS011;54465;51.230;22.504;2022-12-07T15:01:40;11.52;;;6.85;;
32946;SDS011;54465;51.230;22.504;2022-12-07T15:04:44;12.90;;;7.30;;
32946;SDS011;54465;51.230;22.504;2022-12-07T15:07:49;16.73;;;9.05;;
32946;SDS011;54465;51.230;22.504;2022-12-07T15:10:52;12.27;;;6.45;;
32946;SDS011;54465;51.230;22.504;2022-12-07T15:13:56;10.98;;;6.68;;
32946;SDS011;54465;51.230;22.504;2022-12-07T15:17:11;12.13;;;6.68;;
32946;SDS011;54465;51.230;22.504;2022-12-07T15:20:19;13.73;;;7.05;;
32946;SDS011;54465;51.230;22.504;2022-12-07T15:23:25;11.30;;;7.03;;
32946;SDS011;54465;51.230;22.504;2022-12-07T15:26:27;10.18;;;6.35;;
32946;SDS011;54465;51.230;22.504;2022-12-07T15:29:30;12.95;;;7.00;;
32946;SDS011;54465;51.230;22.504;2022-12-07T15:32:34;13.43;;;6.45;;
32946;SDS011;54465;51.230;22.504;2022-12-07T15:35:40;11.52;;;6.93;;
32946;SDS011;54465;51.230;22.504;2022-12-07T15:38:46;10.82;;;7.15;;
32946;SDS011;54465;51.230;22.504;2022-12-07T15:41:48;12.65;;;7.22;;
32946;SDS011;54465;51.230;22.504;2022-12-07T15:44:57;10.35;;;7.07;;
32946;SDS011;54465;51.230;22.504;2022-12-07T15:48:06;13.52;;;6.53;;
32946;SDS011;54465;51.230;22.504;2022-12-07T15:51:10;16.15;;;8.85;;
32946;SDS011;54465;51.230;22.504;2022-12-07T15:54:18;17.42;;;9.52;;
32946;SDS011;54465;51.230;22.504;2022-12-07T15:57:23;15.65;;;7.97;;
32946;SDS011;54465;51.230;22.504;2022-12-07T16:00:26;12.25;;;7.55;;
32946;SDS011;54465;51.230;22.504;2022-12-07T16:03:31;13.23;;;8.07;;
32946;SDS011;54465;51.230;22.504;2022-12-07T16:06:34;10.88;;;7.47;;
32946;SDS011;54465;51.230;22.504;2022-12-07T16:09:39;9.50;;;5.97;;
32946;SDS011;54465;51.230;22.504;2022-12-07T16:12:42;13.35;;;8.15;;
32946;SDS011;54465;51.230;22.504;2022-12-07T16:15:44;10.45;;;6.40;;
32946;SDS011;54465;51.230;22.504;2022-12-07T16:18:47;10.65;;;7.80;;
32946;SDS011;54465;51.230;22.504;2022-12-07T16:21:50;14.13;;;7.38;;
32946;SDS011;54465;51.230;22.504;2022-12-07T16:24:55;12.50;;;8.27;;
32946;SDS011;54465;51.230;22.504;2022-12-07T16:27:57;14.48;;;8.68;;
32946;SDS011;54465;51.230;22.504;2022-12-07T16:31:00;17.25;;;9.85;;
32946;SDS011;54465;51.230;22.504;2022-12-07T16:34:04;16.17;;;9.15;;
32946;SDS011;54465;51.230;22.504;2022-12-07T16:37:06;14.65;;;8.65;;
32946;SDS011;54465;51.230;22.504;2022-12-07T16:40:13;13.88;;;8.73;;
32946;SDS011;54465;51.230;22.504;2022-12-07T16:43:15;15.43;;;8.18;;
32946;SDS011;54465;51.230;22.504;2022-12-07T16:46:19;12.38;;;8.18;;
32946;SDS011;54465;51.230;22.504;2022-12-07T16:49:22;13.07;;;8.55;;
32946;SDS011;54465;51.230;22.504;2022-12-07T16:52:25;14.32;;;9.05;;
32946;SDS011;54465;51.230;22.504;2022-12-07T16:55:28;14.43;;;8.85;;
32946;SDS011;54465;51.230;22.504;2022-12-07T16:58:31;15.82;;;8.77;;
32946;SDS011;54465;51.230;22.504;2022-12-07T17:01:33;13.73;;;9.20;;
32946;SDS011;54465;51.230;22.504;2022-12-07T17:04:36;19.20;;;9.90;;
32946;SDS011;54465;51.230;22.504;2022-12-07T17:07:39;15.40;;;8.98;;
32946;SDS011;54465;51.230;22.504;2022-12-07T17:10:44;15.25;;;9.32;;
32946;SDS011;54465;51.230;22.504;2022-12-07T17:13:46;19.88;;;10.00;;
32946;SDS011;54465;51.230;22.504;2022-12-07T17:17:06;16.95;;;9.57;;
32946;SDS011;54465;51.230;22.504;2022-12-07T17:20:10;15.18;;;9.27;;
32946;SDS011;54465;51.230;22.504;2022-12-07T17:23:18;15.32;;;9.85;;
32946;SDS011;54465;51.230;22.504;2022-12-07T17:26:23;19.65;;;12.25;;
32946;SDS011;54465;51.230;22.504;2022-12-07T17:29:32;18.35;;;11.40;;
32946;SDS011;54465;51.230;22.504;2022-12-07T17:32:35;17.55;;;10.52;;
32946;SDS011;54465;51.230;22.504;2022-12-07T17:35:38;22.50;;;11.90;;
32946;SDS011;54465;51.230;22.504;2022-12-07T17:38:42;20.10;;;11.50;;
32946;SDS011;54465;51.230;22.504;2022-12-07T17:41:53;21.02;;;12.15;;
32946;SDS011;54465;51.230;22.504;2022-12-07T17:45:13;18.63;;;10.88;;
32946;SDS011;54465;51.230;22.504;2022-12-07T17:48:17;18.35;;;10.93;;
32946;SDS011;54465;51.230;22.504;2022-12-07T17:51:21;19.80;;;13.25;;
32946;SDS011;54465;51.230;22.504;2022-12-07T17:54:41;25.13;;;13.13;;
32946;SDS011;54465;51.230;22.504;2022-12-07T17:57:45;21.10;;;12.02;;
32946;SDS011;54465;51.230;22.504;2022-12-07T18:00:48;19.42;;;11.52;;
32946;SDS011;54465;51.230;22.504;2022-12-07T18:03:51;19.33;;;12.13;;
32946;SDS011;54465;51.230;22.504;2022-12-07T18:06:55;17.33;;;11.57;;
32946;SDS011;54465;51.230;22.504;2022-12-07T18:09:58;18.27;;;12.30;;
32946;SDS011;54465;51.230;22.504;2022-12-07T18:13:03;16.50;;;10.40;;
32946;SDS011;54465;51.230;22.504;2022-12-07T18:16:24;16.75;;;9.88;;
32946;SDS011;54465;51.230;22.504;2022-12-07T18:19:27;14.73;;;10.32;;
32946;SDS011;54465;51.230;22.504;2022-12-07T18:22:37;19.38;;;10.05;;
32946;SDS011;54465;51.230;22.504;2022-12-07T18:25:39;18.10;;;10.52;;
32946;SDS011;54465;51.230;22.504;2022-12-07T18:28:44;16.80;;;10.20;;
32946;SDS011;54465;51.230;22.504;2022-12-07T18:31:47;16.63;;;10.18;;
32946;SDS011;54465;51.230;22.504;2022-12-07T18:34:56;16.05;;;10.25;;
32946;SDS011;54465;51.230;22.504;2022-12-07T18:37:59;18.15;;;10.80;;
32946;SDS011;54465;51.230;22.504;2022-12-07T18:41:02;18.80;;;10.90;;
32946;SDS011;54465;51.230;22.504;2022-12-07T18:44:09;16.15;;;10.05;;
32946;SDS011;54465;51.230;22.504;2022-12-07T18:47:15;14.68;;;10.02;;
32946;SDS011;54465;51.230;22.504;2022-12-07T18:50:18;18.80;;;10.48;;
32946;SDS011;54465;51.230;22.504;2022-12-07T18:53:20;16.08;;;9.77;;